createdAt,value
2022-09-29T00:00:50.836Z,93732.97
2022-09-29T00:03:18.399Z,93733.69
2022-09-29T00:05:53.693Z,93727.81
2022-09-29T00:08:22.958Z,93730.25
2022-09-29T00:10:50.195Z,93735.06
2022-09-29T00:13:18.257Z,93731.94
2022-09-29T00:15:45.477Z,93726.31
2022-09-29T00:18:14.642Z,93730.72
2022-09-29T00:20:42.303Z,93727.81
2022-09-29T00:23:09.272Z,93724.50
2022-09-29T00:25:36.282Z,93738.47
2022-09-29T00:28:03.285Z,93733.38
2022-09-29T00:30:30.244Z,93735.69
2022-09-29T00:32:57.453Z,93735.06
2022-09-29T00:35:24.391Z,93737.50
2022-09-29T00:37:51.345Z,93736.22
2022-09-29T00:40:18.545Z,93735.75
2022-09-29T00:42:45.785Z,93735.69
2022-09-29T00:45:24.716Z,93727.69
2022-09-29T00:48:14.674Z,93723.97
2022-09-29T00:50:49.340Z,93725.53
2022-09-29T00:53:21.750Z,93728.69
2022-09-29T00:55:54.256Z,93717.50
2022-09-29T00:58:54.924Z,93720.28
2022-09-29T01:01:23.870Z,93722.94
2022-09-29T01:03:56.024Z,93722.03
2022-09-29T01:06:34.795Z,93719.78
2022-09-29T01:09:08.552Z,93719.72
2022-09-29T01:11:35.550Z,93718.72
2022-09-29T01:14:06.725Z,93721.88
2022-09-29T01:16:35.386Z,93724.44
2022-09-29T01:19:08.234Z,93724.03
2022-09-29T01:22:03.942Z,93726.75
2022-09-29T01:25:26.369Z,93727.59
2022-09-29T01:28:33.835Z,93731.56
2022-09-29T01:31:23.377Z,93728.91
2022-09-29T01:34:08.712Z,93735.72
2022-09-29T01:37:25.184Z,93740.13
2022-09-29T01:40:03.258Z,93742.16
2022-09-29T01:42:36.361Z,93738.09
2022-09-29T01:45:15.878Z,93742.78
2022-09-29T01:47:49.357Z,93747.75
2022-09-29T01:50:27.463Z,93750.22
2022-09-29T01:53:03.007Z,93750.81
2022-09-29T01:55:35.249Z,93751.56
2022-09-29T01:58:13.793Z,93746.72
2022-09-29T02:00:48.981Z,93744.38
2022-09-29T02:03:40.374Z,93740.50
2022-09-29T02:06:17.994Z,93745.09
2022-09-29T02:08:56.297Z,93743.16
2022-09-29T02:11:23.726Z,93746.13
2022-09-29T02:14:31.206Z,93747.44
2022-09-29T02:17:08.305Z,93744.00
2022-09-29T02:19:38.994Z,93751.59
2022-09-29T02:22:05.988Z,93756.25
2022-09-29T02:24:32.920Z,93755.94
2022-09-29T02:27:00.405Z,93749.25
2022-09-29T02:29:27.797Z,93750.88
2022-09-29T02:31:55.768Z,93745.66
2022-09-29T02:34:23.541Z,93745.25
2022-09-29T02:37:33.755Z,93742.25
2022-09-29T02:40:39.026Z,93739.66
2022-09-29T02:43:42.760Z,93733.38
2022-09-29T02:46:44.419Z,93720.19
2022-09-29T02:49:38.734Z,93708.53
2022-09-29T02:52:47.188Z,93706.97
2022-09-29T02:55:34.176Z,93699.97
2022-09-29T02:58:13.479Z,93711.66
2022-09-29T03:00:40.922Z,93705.81
2022-09-29T03:03:07.944Z,93706.13
2022-09-29T03:05:34.934Z,93702.19
2022-09-29T03:08:02.398Z,93727.84
2022-09-29T03:10:30.405Z,93736.09
2022-09-29T03:12:57.566Z,93739.25
2022-09-29T03:15:24.703Z,93745.34
2022-09-29T03:17:56.796Z,93749.72
2022-09-29T03:20:24.046Z,93748.81
2022-09-29T03:22:51.278Z,93753.28
2022-09-29T03:25:18.320Z,93759.13
2022-09-29T03:27:45.341Z,93763.59
2022-09-29T03:30:13.321Z,93779.59
2022-09-29T03:32:40.229Z,93782.81
2022-09-29T03:35:08.232Z,93787.91
2022-09-29T03:37:35.424Z,93772.34
2022-09-29T03:40:04.137Z,93773.16
2022-09-29T03:42:31.219Z,93771.13
2022-09-29T03:44:58.294Z,93779.91
2022-09-29T03:47:25.439Z,93774.91
2022-09-29T03:49:52.527Z,93771.06
2022-09-29T03:52:19.502Z,93776.47
2022-09-29T03:54:46.425Z,93754.28
2022-09-29T03:57:13.414Z,93779.72
2022-09-29T03:59:45.296Z,93768.34
2022-09-29T04:02:12.644Z,93760.56
2022-09-29T04:04:39.582Z,93757.50
2022-09-29T04:07:06.531Z,93767.56
2022-09-29T04:09:33.543Z,93751.81
2022-09-29T04:12:00.656Z,93747.13
2022-09-29T04:14:27.648Z,93749.91
2022-09-29T04:16:54.563Z,93750.59
2022-09-29T04:19:21.474Z,93761.34
2022-09-29T04:21:48.514Z,93751.66
2022-09-29T04:24:15.568Z,93759.56
2022-09-29T04:26:42.500Z,93750.53
2022-09-29T04:29:09.728Z,93741.97
2022-09-29T04:31:36.820Z,93749.81
2022-09-29T04:34:03.840Z,93753.22
2022-09-29T04:36:30.862Z,93756.63
2022-09-29T04:38:57.792Z,93749.22
2022-09-29T04:41:24.773Z,93742.50
2022-09-29T04:43:51.660Z,93751.75
2022-09-29T04:46:18.611Z,93748.78
2022-09-29T04:48:45.772Z,93758.84
2022-09-29T04:51:12.760Z,93750.63
2022-09-29T04:53:39.668Z,93747.22
2022-09-29T04:56:08.820Z,93751.06
2022-09-29T04:58:36.791Z,93755.34
2022-09-29T05:01:14.046Z,93761.28
2022-09-29T05:03:41.526Z,93749.59
2022-09-29T05:06:10.149Z,93755.78
2022-09-29T05:08:37.602Z,93745.69
2022-09-29T05:11:09.885Z,93758.09
2022-09-29T05:13:38.233Z,93770.44
2022-09-29T05:16:05.857Z,93758.47
2022-09-29T05:18:33.546Z,93769.13
2022-09-29T05:21:27.168Z,93761.41
2022-09-29T05:23:55.116Z,93774.34
2022-09-29T05:26:22.127Z,93773.47
2022-09-29T05:28:49.222Z,93787.69
2022-09-29T05:31:16.421Z,93788.13
2022-09-29T05:33:43.847Z,93801.72
2022-09-29T05:36:12.678Z,93800.44
2022-09-29T05:38:40.122Z,93796.44
2022-09-29T05:41:10.151Z,93785.94
2022-09-29T05:43:37.356Z,93791.44
2022-09-29T05:46:06.408Z,93800.72
2022-09-29T05:48:34.033Z,93785.50
2022-09-29T05:51:08.829Z,93778.59
2022-09-29T05:53:36.444Z,93783.94
2022-09-29T05:56:12.206Z,93799.66
2022-09-29T05:58:40.285Z,93792.84
2022-09-29T06:01:09.264Z,93794.66
2022-09-29T06:03:37.300Z,93795.72
2022-09-29T06:06:13.305Z,93798.00
2022-09-29T06:08:41.232Z,93803.78
2022-09-29T06:11:11.178Z,93805.88
2022-09-29T06:13:39.904Z,93797.13
2022-09-29T06:16:07.973Z,93793.53
2022-09-29T06:18:37.141Z,93789.50
2022-09-29T06:21:07.051Z,93793.47
2022-09-29T06:23:34.851Z,93788.88
2022-09-29T06:26:05.067Z,93792.97
2022-09-29T06:28:32.912Z,93809.72
2022-09-29T06:31:02.054Z,93810.31
2022-09-29T06:33:29.427Z,93806.72
2022-09-29T06:36:16.022Z,93798.53
2022-09-29T06:38:43.309Z,93808.91
2022-09-29T06:41:10.228Z,93813.63
2022-09-29T06:43:37.809Z,93811.41
2022-09-29T06:46:05.203Z,93801.28
2022-09-29T06:48:32.226Z,93806.81
2022-09-29T06:51:09.550Z,93796.28
2022-09-29T06:53:38.842Z,93807.63
2022-09-29T06:56:06.819Z,93814.09
2022-09-29T06:58:34.374Z,93815.78
2022-09-29T07:01:02.824Z,93823.00
2022-09-29T07:03:30.663Z,93817.16
2022-09-29T07:08:48.125Z,93827.66
2022-09-29T07:11:16.727Z,93816.53
2022-09-29T07:13:43.757Z,93824.38
2022-09-29T07:16:12.543Z,93826.56
2022-09-29T07:18:42.178Z,93819.56
2022-09-29T07:21:11.949Z,93812.28
2022-09-29T07:23:39.450Z,93808.47
2022-09-29T07:26:07.681Z,93803.03
2022-09-29T07:28:35.105Z,93793.41
2022-09-29T07:31:13.016Z,93802.84
2022-09-29T07:33:42.218Z,93807.56
2022-09-29T07:36:09.281Z,93806.50
2022-09-29T07:38:36.350Z,93812.41
2022-09-29T07:41:05.277Z,93815.22
2022-09-29T07:43:32.594Z,93814.91
2022-09-29T07:46:02.553Z,93818.44
2022-09-29T07:48:32.206Z,93816.09
2022-09-29T07:51:21.508Z,93829.00
2022-09-29T07:53:48.471Z,93834.56
2022-09-29T07:56:19.011Z,93840.00
2022-09-29T07:58:47.554Z,93842.38
2022-09-29T08:01:16.415Z,93853.38
2022-09-29T08:03:49.179Z,93845.66
2022-09-29T08:06:16.216Z,93849.56
2022-09-29T08:08:56.748Z,93854.25
2022-09-29T08:11:32.154Z,93855.88
2022-09-29T08:14:00.487Z,93855.56
2022-09-29T08:16:27.730Z,93866.13
2022-09-29T08:18:55.147Z,93847.75
2022-09-29T08:21:22.559Z,93864.97
2022-09-29T08:23:49.567Z,93856.78
2022-09-29T08:26:20.743Z,93868.47
2022-09-29T08:29:03.275Z,93866.91
2022-09-29T08:31:34.172Z,93867.66
2022-09-29T08:34:01.194Z,93870.03
2022-09-29T08:36:28.258Z,93867.28
2022-09-29T08:38:57.220Z,93859.44
2022-09-29T08:41:55.585Z,93861.34
2022-09-29T08:45:10.783Z,93859.41
2022-09-29T08:47:48.246Z,93857.41
2022-09-29T08:50:43.721Z,93874.25
2022-09-29T08:53:26.390Z,93870.72
2022-09-29T08:56:06.163Z,93873.88
2022-09-29T08:58:34.667Z,93883.31
2022-09-29T09:01:24.689Z,93872.38
2022-09-29T09:04:32.347Z,93867.66
2022-09-29T09:07:44.117Z,93862.97
2022-09-29T09:10:25.796Z,93858.63
2022-09-29T09:13:27.475Z,93865.28
2022-09-29T09:16:54.774Z,93871.94
2022-09-29T09:19:47.309Z,93875.81
2022-09-29T09:22:25.018Z,93872.28
2022-09-29T09:25:07.510Z,93861.69
2022-09-29T09:27:39.920Z,93865.13
2022-09-29T09:30:13.672Z,93858.09
2022-09-29T09:32:51.028Z,93857.75
2022-09-29T09:35:53.944Z,93854.53
2022-09-29T09:38:44.584Z,93854.88
2022-09-29T09:41:16.214Z,93855.97
2022-09-29T09:43:47.809Z,93851.63
2022-09-29T09:46:50.163Z,93859.75
2022-09-29T09:49:28.603Z,93852.13
2022-09-29T09:52:15.830Z,93852.63
2022-09-29T09:54:51.160Z,93867.44
2022-09-29T09:57:55.017Z,93854.94
2022-09-29T10:00:41.454Z,93861.59
2022-09-29T10:03:10.103Z,93859.47
2022-09-29T10:05:52.703Z,93863.66
2022-09-29T10:08:28.183Z,93874.00
2022-09-29T10:10:59.061Z,93864.34
2022-09-29T10:13:31.592Z,93847.78
2022-09-29T10:16:21.333Z,93851.53
2022-09-29T10:18:52.879Z,93841.00
2022-09-29T10:21:36.390Z,93858.47
2022-09-29T10:24:07.585Z,93850.75
2022-09-29T10:26:44.054Z,93849.78
2022-09-29T10:29:41.422Z,93841.94
2022-09-29T10:32:38.550Z,93856.75
2022-09-29T10:35:18.219Z,93848.22
2022-09-29T10:37:52.185Z,93846.88
2022-09-29T10:40:21.643Z,93846.91
2022-09-29T10:42:52.152Z,93845.31
2022-09-29T10:45:20.397Z,93844.06
2022-09-29T10:48:13.471Z,93840.72
2022-09-29T10:50:53.948Z,93839.97
2022-09-29T10:53:34.458Z,93831.41
2022-09-29T10:56:25.211Z,93845.16
2022-09-29T10:59:00.366Z,93834.38
2022-09-29T11:01:42.172Z,93828.75
2022-09-29T11:04:45.552Z,93833.50
2022-09-29T11:07:13.306Z,93824.00
2022-09-29T11:09:43.539Z,93822.81
2022-09-29T11:12:29.788Z,93828.16
2022-09-29T11:14:57.522Z,93828.66
2022-09-29T11:17:31.661Z,93830.41
2022-09-29T11:20:01.408Z,93838.00
2022-09-29T11:23:08.806Z,93835.25
2022-09-29T11:26:06.021Z,93828.28
2022-09-29T11:29:12.241Z,93828.56
2022-09-29T11:32:13.841Z,93822.44
2022-09-29T11:35:15.134Z,93841.78
2022-09-29T11:38:16.907Z,93829.59
2022-09-29T11:41:25.518Z,93832.84
2022-09-29T11:43:57.370Z,93845.69
2022-09-29T11:46:49.664Z,93839.31
2022-09-29T11:49:58.592Z,93836.06
2022-09-29T11:53:18.992Z,93834.03
2022-09-29T11:56:14.978Z,93828.94
2022-09-29T11:59:11.019Z,93835.09
2022-09-29T12:02:15.065Z,93836.19
2022-09-29T12:04:57.317Z,93826.69
2022-09-29T12:07:57.224Z,93821.41
2022-09-29T12:10:53.625Z,93823.66
2022-09-29T12:13:43.644Z,93829.34
2022-09-29T12:16:20.530Z,93828.59
2022-09-29T12:18:54.683Z,93831.94
2022-09-29T12:21:34.789Z,93824.50
2022-09-29T12:24:07.806Z,93828.16
2022-09-29T12:26:35.336Z,93819.69
2022-09-29T12:29:18.101Z,93830.50
2022-09-29T12:31:50.450Z,93830.06
2022-09-29T12:34:40.606Z,93821.56
2022-09-29T12:37:18.130Z,93827.47
2022-09-29T12:40:10.812Z,93830.56
2022-09-29T12:43:04.531Z,93824.63
2022-09-29T12:46:03.868Z,93828.75
2022-09-29T12:48:51.607Z,93833.97
2022-09-29T12:51:37.248Z,93834.19
2022-09-29T12:54:21.439Z,93835.94
2022-09-29T12:56:58.832Z,93829.00
2022-09-29T12:59:41.692Z,93832.22
2022-09-29T13:02:51.625Z,93826.00
2022-09-29T13:06:09.414Z,93831.56
2022-09-29T13:09:03.057Z,93828.31
2022-09-29T13:12:03.597Z,93838.09
2022-09-29T13:15:20.039Z,93838.78
2022-09-29T13:27:42.923Z,93828.91
2022-09-29T13:30:30.879Z,93835.28
2022-09-29T13:35:47.431Z,93836.06
2022-09-29T13:38:19.713Z,93845.84
2022-09-29T13:41:10.083Z,93833.25
2022-09-29T13:43:39.603Z,93840.53
2022-09-29T13:46:53.053Z,93846.69
2022-09-29T13:49:29.301Z,93847.44
2022-09-29T13:52:20.031Z,93844.63
2022-09-29T13:54:46.817Z,93854.09
2022-09-29T13:57:27.735Z,93852.84
2022-09-29T14:00:17.850Z,93855.63
2022-09-29T14:03:01.303Z,93859.13
2022-09-29T14:05:40.088Z,93866.34
2022-09-29T14:08:31.602Z,93858.59
2022-09-29T14:11:06.630Z,93862.53
2022-09-29T14:14:15.933Z,93870.34
2022-09-29T14:16:54.848Z,93857.81
2022-09-29T14:19:54.890Z,93869.66
2022-09-29T14:22:55.929Z,93856.44
2022-09-29T14:25:53.686Z,93859.19
2022-09-29T14:28:25.545Z,93864.34
2022-09-29T14:30:55.248Z,93865.88
2022-09-29T14:33:30.042Z,93868.31
2022-09-29T14:36:10.529Z,93876.16
2022-09-29T14:38:43.025Z,93880.06
2022-09-29T14:41:24.328Z,93896.53
2022-09-29T14:43:56.131Z,93907.16
2022-09-29T14:47:19.536Z,93920.13
2022-09-29T14:50:22.298Z,93931.06
2022-09-29T14:53:17.817Z,93931.13
2022-09-29T14:56:37.961Z,93929.59
2022-09-29T14:59:33.998Z,93931.50
2022-09-29T15:02:42.188Z,93930.28
2022-09-29T15:05:31.110Z,93924.03
2022-09-29T15:08:02.392Z,93916.63
2022-09-29T15:10:42.959Z,93927.19
2022-09-29T15:13:35.986Z,93923.25
2022-09-29T15:16:30.088Z,93924.03
2022-09-29T15:19:29.748Z,93926.38
2022-09-29T15:22:28.023Z,93931.84
2022-09-29T15:25:25.252Z,93927.16
2022-09-29T15:27:55.022Z,93931.06
2022-09-29T15:30:23.762Z,93931.84
2022-09-29T15:32:52.387Z,93935.75
2022-09-29T15:35:30.185Z,93942.75
2022-09-29T15:38:29.051Z,93940.34
2022-09-29T15:41:00.096Z,93939.91
2022-09-29T15:43:41.634Z,93940.25
2022-09-29T15:46:48.524Z,93942.94
2022-09-29T15:49:18.430Z,93951.81
2022-09-29T15:51:59.185Z,93958.75
2022-09-29T15:57:51.427Z,93958.31
2022-09-29T16:00:44.835Z,93954.06
2022-09-29T16:03:41.235Z,93958.41
2022-09-29T16:06:39.980Z,93965.09
2022-09-29T16:09:19.058Z,93979.16
2022-09-29T16:11:46.359Z,93968.22
2022-09-29T16:14:28.510Z,93978.31
2022-09-29T16:16:59.029Z,93984.94
2022-09-29T16:19:32.668Z,94001.06
2022-09-29T16:22:06.757Z,94012.19
2022-09-29T16:24:36.927Z,94014.81
2022-09-29T16:27:04.087Z,94030.25
2022-09-29T16:29:36.070Z,94037.00
2022-09-29T16:32:42.301Z,94060.16
2022-09-29T16:36:01.104Z,94071.25
2022-09-29T16:38:35.994Z,94071.28
2022-09-29T16:41:40.870Z,94087.22
2022-09-29T16:44:43.807Z,94080.94
2022-09-29T16:47:17.307Z,94090.00
2022-09-29T16:49:53.489Z,94101.63
2022-09-29T16:52:28.761Z,94104.00
2022-09-29T16:55:16.456Z,94106.50
2022-09-29T16:58:19.237Z,94103.19
2022-09-29T17:00:47.818Z,94097.63
2022-09-29T17:03:15.175Z,94094.50
2022-09-29T17:05:47.928Z,94083.91
2022-09-29T17:08:31.929Z,94086.91
2022-09-29T17:10:58.946Z,94082.09
2022-09-29T17:13:32.542Z,94089.06
2022-09-29T17:15:59.530Z,94083.13
2022-09-29T17:18:27.322Z,94070.97
2022-09-29T17:20:54.474Z,94066.53
2022-09-29T17:23:21.451Z,94064.13
2022-09-29T17:25:48.680Z,94061.28
2022-09-29T17:28:25.438Z,94059.22
2022-09-29T17:30:55.763Z,94049.84
2022-09-29T17:33:23.051Z,94041.66
2022-09-29T17:35:55.243Z,94040.53
2022-09-29T17:38:24.230Z,94040.53
2022-09-29T17:41:18.417Z,94043.97
2022-09-29T17:43:46.906Z,94043.56
2022-09-29T17:46:15.976Z,94049.00
2022-09-29T17:48:43.350Z,94052.28
2022-09-29T17:51:12.989Z,94057.56
2022-09-29T17:53:41.869Z,94062.84
2022-09-29T17:56:22.048Z,94067.94
2022-09-29T17:58:49.656Z,94071.44
2022-09-29T18:01:20.196Z,94071.84
2022-09-29T18:03:50.822Z,94073.78
2022-09-29T18:06:27.719Z,94077.38
2022-09-29T18:08:56.495Z,94085.19
2022-09-29T18:11:25.683Z,94094.41
2022-09-29T18:13:53.737Z,94091.00
2022-09-29T18:16:23.549Z,94099.28
2022-09-29T18:18:56.697Z,94111.13
2022-09-29T18:21:25.157Z,94113.59
2022-09-29T18:23:52.202Z,94111.38
2022-09-29T18:26:19.422Z,94122.34
2022-09-29T18:28:48.701Z,94119.31
2022-09-29T18:31:25.024Z,94125.63
2022-09-29T18:33:53.199Z,94119.44
2022-09-29T18:36:21.223Z,94120.28
2022-09-29T18:38:48.630Z,94122.28
2022-09-29T18:41:20.431Z,94118.34
2022-09-29T18:43:48.665Z,94119.81
2022-09-29T18:46:16.101Z,94113.88
2022-09-29T18:48:43.997Z,94114.59
2022-09-29T18:51:13.812Z,94110.84
2022-09-29T18:53:42.119Z,94119.38
2022-09-29T18:56:19.401Z,94119.75
2022-09-29T18:58:46.422Z,94123.03
2022-09-29T19:01:17.214Z,94122.84
2022-09-29T19:03:44.175Z,94121.00
2022-09-29T19:06:15.720Z,94132.31
2022-09-29T19:08:49.288Z,94131.22
2022-09-29T19:11:21.073Z,94134.31
2022-09-29T19:13:50.827Z,94130.31
2022-09-29T19:16:18.789Z,94129.53
2022-09-29T19:18:45.940Z,94131.94
2022-09-29T19:21:14.489Z,94118.41
2022-09-29T19:23:43.263Z,94132.19
2022-09-29T19:26:13.011Z,94128.47
2022-09-29T19:28:41.062Z,94131.66
2022-09-29T19:31:12.117Z,94142.09
2022-09-29T19:33:39.631Z,94144.81
2022-09-29T19:36:08.988Z,94144.53
2022-09-29T19:38:37.984Z,94152.38
2022-09-29T19:41:11.738Z,94148.66
2022-09-29T19:43:39.418Z,94149.25
2022-09-29T19:46:10.741Z,94146.03
2022-09-29T19:48:38.130Z,94142.06
2022-09-29T19:51:23.803Z,94146.41
2022-09-29T19:54:10.814Z,94154.09
2022-09-29T19:57:08.688Z,94168.28
2022-09-29T19:59:38.529Z,94171.94
2022-09-29T20:02:08.873Z,94160.81
2022-09-29T20:04:36.503Z,94169.84
2022-09-29T20:07:04.429Z,94160.97
2022-09-29T20:09:32.918Z,94169.97
2022-09-29T20:12:00.151Z,94168.84
2022-09-29T20:14:28.268Z,94162.34
2022-09-29T20:16:57.846Z,94166.22
2022-09-29T20:19:25.564Z,94161.56
2022-09-29T20:21:53.857Z,94157.34
2022-09-29T20:24:24.328Z,94156.19
2022-09-29T20:26:51.901Z,94158.91
2022-09-29T20:29:19.891Z,94157.84
2022-09-29T20:31:48.269Z,94172.31
2022-09-29T20:34:18.815Z,94179.75
2022-09-29T20:36:48.700Z,94182.91
2022-09-29T20:39:21.619Z,94186.88
2022-09-29T20:41:50.169Z,94186.41
2022-09-29T20:44:20.173Z,94199.88
2022-09-29T20:46:47.373Z,94200.50
2022-09-29T20:49:14.419Z,94199.66
2022-09-29T20:51:41.534Z,94202.81
2022-09-29T20:54:11.989Z,94199.66
2022-09-29T20:56:42.608Z,94201.66
2022-09-29T20:59:18.334Z,94199.78
2022-09-29T21:01:45.442Z,94205.25
2022-09-29T21:04:15.623Z,94203.66
2022-09-29T21:06:44.454Z,94216.03
2022-09-29T21:09:14.489Z,94220.28
2022-09-29T21:11:43.801Z,94209.91
2022-09-29T21:14:13.313Z,94208.78
2022-09-29T21:16:45.456Z,94191.75
2022-09-29T21:19:13.387Z,94208.78
2022-09-29T21:21:41.209Z,94186.16
2022-09-29T21:24:08.970Z,94193.97
2022-09-29T21:26:36.230Z,94199.75
2022-09-29T21:29:04.413Z,94198.63
2022-09-29T21:31:33.798Z,94201.75
2022-09-29T21:34:07.120Z,94209.13
2022-09-29T21:36:36.440Z,94200.97
2022-09-29T21:39:08.753Z,94211.06
2022-09-29T21:41:38.411Z,94203.47
2022-09-29T21:44:11.576Z,94201.88
2022-09-29T21:46:39.783Z,94200.75
2022-09-29T21:49:08.696Z,94206.44
2022-09-29T21:51:41.688Z,94212.22
2022-09-29T21:54:12.477Z,94203.63
2022-09-29T21:56:41.586Z,94205.41
2022-09-29T21:59:10.465Z,94207.69
2022-09-29T22:01:39.806Z,94214.44
2022-09-29T22:04:07.604Z,94215.22
2022-09-29T22:06:35.922Z,94216.13
2022-09-29T22:09:04.159Z,94224.34
2022-09-29T22:11:42.590Z,94215.66
2022-09-29T22:14:12.444Z,94213.97
2022-09-29T22:16:40.238Z,94212.06
2022-09-29T22:19:24.098Z,94213.19
2022-09-29T22:21:53.439Z,94205.28
2022-09-29T22:24:20.782Z,94212.84
2022-09-29T22:26:47.844Z,94223.63
2022-09-29T22:29:15.051Z,94216.50
2022-09-29T22:31:42.001Z,94218.75
2022-09-29T22:34:11.400Z,94229.19
2022-09-29T22:36:39.476Z,94226.66
2022-09-29T22:39:07.191Z,94236.63
2022-09-29T22:41:37.066Z,94233.31
2022-09-29T22:44:04.497Z,94237.72
2022-09-29T22:46:32.646Z,94229.94
2022-09-29T22:49:00.184Z,94224.50
2022-09-29T22:51:27.451Z,94222.94
2022-09-29T22:53:54.491Z,94223.38
2022-09-29T22:56:28.880Z,94222.22
2022-09-29T22:59:01.355Z,94237.63
2022-09-29T23:01:29.345Z,94228.88
2022-09-29T23:03:56.414Z,94231.06
2022-09-29T23:06:23.449Z,94234.56
2022-09-29T23:08:50.791Z,94248.13
2022-09-29T23:11:20.071Z,94239.97
2022-09-29T23:13:47.527Z,94240.41
2022-09-29T23:16:19.441Z,94236.66
2022-09-29T23:18:46.693Z,94242.19
2022-09-29T23:21:17.895Z,94239.91
2022-09-29T23:23:45.577Z,94245.44
2022-09-29T23:26:12.745Z,94252.88
2022-09-29T23:28:39.842Z,94252.56
2022-09-29T23:31:08.355Z,94259.56
2022-09-29T23:33:35.791Z,94259.44
2022-09-29T23:36:11.070Z,94266.38
2022-09-29T23:38:58.424Z,94266.19
2022-09-29T23:41:27.505Z,94264.41
2022-09-29T23:43:58.136Z,94273.22
2022-09-29T23:46:26.979Z,94275.03
2022-09-29T23:48:53.999Z,94282.28
2022-09-29T23:51:21.060Z,94290.00
2022-09-29T23:53:48.052Z,94286.16
2022-09-29T23:56:15.126Z,94291.22
2022-09-29T23:58:42.229Z,94290.44
